2F6 weather

Skiatook Municipal Airport
Skiatook, Oklahoma, United States

Public forecast

Using degrees Fahrenheit for public forecast. Weather courtesy of forecast.io.

Closest aviation weather report (METAR) to Skiatook Municipal Airport

Closest report is Tulsa International Airport, 11.1 nm (20.6 km) SSE. Retrieved 2019/10/19 08:53 UTC (32 minutes ago):

KTUL 190853Z 17014KT 10SM FEW110 SCT130 OVC160 15/09 A2970 RMK AO2 LTG DSNT SW SLP051 T01500094 58002

Closest aviation forecast (TAF) to Skiatook Municipal Airport

Closest forecast is Tulsa International Airport, 11.1 nm (20.6 km) SSE. Retrieved 2019/10/19 06:22 UTC (3 hours ago):

TAF KTUL 190520Z 1906/2006 16012KT P6SM SCT100 FM190800 16010KT P6SM -SHRA BKN100 TEMPO 1908/1912 6SM -TSRA BKN050CB FM191200 23006KT P6SM BKN100 FM191700 34008KT P6SM SCT050 FM200000 36006KT P6SM SKC